Time;durP1;ratioP1;P1;durP2;ratioP2;P2;SDS_P1;SDS_P2;PMS_P1;PMS_P2;Temp;Humidity;BMP_temperature;BMP_pressure;BME280_temperature;BME280_humidity;BME280_pressure;Samples;Min_cycle;Max_cycle;Signal;HPM_P1;HPM_P2
2022/03/03 00:01:39;;;;;;;8.18;7.35;;;2.10;74.70;;;;;;635245;226;26790;-69
2022/03/03 00:04:06;;;;;;;7.95;7.12;;;2.10;75.60;;;;;;635344;226;26520;-69
2022/03/03 00:06:33;;;;;;;10.25;7.90;;;2.00;75.10;;;;;;635350;226;26750;-70
2022/03/03 00:09:00;;;;;;;10.88;8.15;;;2.00;75.30;;;;;;628406;226;26524;-70
2022/03/03 00:11:27;;;;;;;9.13;7.62;;;2.10;75.90;;;;;;626174;229;26776;-70
2022/03/03 00:13:56;;;;;;;9.10;7.97;;;2.10;75.60;;;;;;626246;229;26563;-70
2022/03/03 00:16:24;;;;;;;8.43;7.47;;;2.10;75.60;;;;;;627767;227;26518;-69
2022/03/03 00:18:51;;;;;;;8.98;7.62;;;2.10;75.60;;;;;;627439;228;26583;-70
2022/03/03 00:21:18;;;;;;;9.07;7.87;;;2.10;75.60;;;;;;627108;228;26543;-71
2022/03/03 00:23:45;;;;;;;9.90;7.53;;;2.20;76.00;;;;;;627052;228;26968;-69
2022/03/03 00:26:12;;;;;;;9.68;7.70;;;2.10;75.80;;;;;;626836;228;26591;-70
2022/03/03 00:28:40;;;;;;;8.68;7.10;;;2.10;76.10;;;;;;626816;229;26820;-69
2022/03/03 00:31:08;;;;;;;8.48;7.47;;;2.00;76.60;;;;;;626805;228;26650;-70
2022/03/03 00:33:36;;;;;;;8.65;7.47;;;2.00;76.70;;;;;;626659;228;26620;-69
2022/03/03 00:36:03;;;;;;;7.93;7.12;;;2.00;76.70;;;;;;626527;229;26734;-69
2022/03/03 00:38:30;;;;;;;9.20;7.50;;;2.00;77.40;;;;;;626572;229;26762;-70
2022/03/03 00:40:58;;;;;;;9.32;7.87;;;1.90;77.40;;;;;;626557;229;26531;-70
2022/03/03 00:43:26;;;;;;;9.50;7.62;;;1.90;77.50;;;;;;626570;229;26595;-70
2022/03/03 00:45:53;;;;;;;10.27;7.85;;;1.80;77.30;;;;;;626541;229;26766;-69
2022/03/03 00:48:20;;;;;;;9.55;8.55;;;1.80;77.90;;;;;;624006;229;26586;-70
2022/03/03 00:50:48;;;;;;;10.30;8.07;;;1.90;77.70;;;;;;623191;229;26816;-69
2022/03/03 00:53:15;;;;;;;9.15;8.15;;;1.90;77.70;;;;;;622956;229;26605;-69
2022/03/03 00:55:42;;;;;;;8.82;7.93;;;1.80;77.60;;;;;;622927;229;27305;-70
2022/03/03 00:58:09;;;;;;;8.50;7.43;;;1.80;77.60;;;;;;622945;229;26585;-70
2022/03/03 01:00:38;;;;;;;9.38;8.20;;;1.90;78.10;;;;;;622951;230;26583;-70
2022/03/03 01:03:05;;;;;;;11.85;8.63;;;1.80;78.00;;;;;;622899;230;26945;-70
2022/03/03 01:05:32;;;;;;;9.02;8.10;;;2.00;78.00;;;;;;622970;230;26591;-69
2022/03/03 01:07:59;;;;;;;9.80;8.52;;;2.10;77.10;;;;;;623049;229;26535;-65
2022/03/03 01:10:27;;;;;;;9.73;8.02;;;2.20;76.60;;;;;;622976;228;26568;-65
2022/03/03 01:12:54;;;;;;;10.05;8.40;;;2.10;76.30;;;;;;622935;230;26832;-65
2022/03/03 01:15:21;;;;;;;9.57;8.63;;;2.20;75.90;;;;;;622998;230;26576;-65
2022/03/03 01:17:48;;;;;;;10.82;8.77;;;2.30;75.60;;;;;;622993;229;27244;-65
2022/03/03 01:20:16;;;;;;;9.48;8.48;;;2.30;75.40;;;;;;630898;225;26591;-65
2022/03/03 01:22:44;;;;;;;9.90;8.05;;;2.20;75.40;;;;;;625687;225;26629;-65
2022/03/03 01:25:12;;;;;;;9.70;8.10;;;2.20;76.00;;;;;;622914;229;26605;-65
2022/03/03 01:27:39;;;;;;;9.48;8.52;;;2.20;75.50;;;;;;624293;228;26849;-66
2022/03/03 01:30:07;;;;;;;10.13;8.00;;;2.30;75.50;;;;;;624247;228;26542;-66
2022/03/03 01:32:35;;;;;;;9.98;8.60;;;2.30;75.70;;;;;;623820;228;26610;-66
2022/03/03 01:35:02;;;;;;;9.65;8.30;;;2.40;75.90;;;;;;623865;229;27101;-66
2022/03/03 01:37:30;;;;;;;12.15;8.98;;;2.40;77.30;;;;;;623513;229;26547;-65
2022/03/03 01:39:58;;;;;;;9.93;8.93;;;2.40;77.70;;;;;;623556;229;26551;-65
2022/03/03 01:42:25;;;;;;;10.27;8.50;;;2.40;77.70;;;;;;623531;229;26575;-65
2022/03/03 01:44:52;;;;;;;10.68;8.80;;;2.30;77.60;;;;;;623469;229;26511;-65
2022/03/03 01:47:19;;;;;;;9.48;8.48;;;2.30;77.60;;;;;;624467;229;26818;-65
2022/03/03 01:49:47;;;;;;;9.18;8.13;;;2.20;78.70;;;;;;626538;229;26547;-65
2022/03/03 01:52:14;;;;;;;9.63;8.63;;;2.10;78.80;;;;;;626453;229;26797;-65
2022/03/03 01:54:41;;;;;;;10.07;8.63;;;2.10;77.80;;;;;;626540;228;26533;-65
2022/03/03 01:57:08;;;;;;;8.68;7.78;;;2.20;77.00;;;;;;626544;228;26546;-65
2022/03/03 01:59:36;;;;;;;10.02;8.05;;;2.20;77.00;;;;;;626563;228;26557;-65
2022/03/03 02:02:05;;;;;;;9.98;8.70;;;2.30;76.70;;;;;;626484;228;26575;-65
2022/03/03 02:04:32;;;;;;;10.48;8.60;;;2.30;76.70;;;;;;626265;224;26772;-66
2022/03/03 02:07:00;;;;;;;9.88;8.57;;;2.40;76.70;;;;;;626106;229;26551;-65
2022/03/03 02:09:26;;;;;;;10.45;8.52;;;2.30;76.50;;;;;;626202;229;26750;-65
2022/03/03 02:11:54;;;;;;;10.00;9.00;;;2.00;73.40;;;;;;625974;229;26571;-65
2022/03/03 02:14:22;;;;;;;9.77;8.55;;;1.70;74.60;;;;;;626149;229;26588;-65
2022/03/03 02:16:50;;;;;;;9.85;8.55;;;1.70;74.50;;;;;;626169;229;26541;-65
2022/03/03 02:19:17;;;;;;;10.32;8.93;;;1.70;74.50;;;;;;626124;229;27206;-65
2022/03/03 02:21:47;;;;;;;10.13;8.63;;;1.70;74.30;;;;;;626057;229;26571;-65
2022/03/03 02:24:14;;;;;;;12.35;9.13;;;1.80;73.70;;;;;;626111;229;26540;-65
2022/03/03 02:26:42;;;;;;;10.13;8.35;;;1.90;74.00;;;;;;627110;225;26809;-65
2022/03/03 02:29:09;;;;;;;10.32;8.82;;;1.90;72.80;;;;;;626159;229;26805;-65
2022/03/03 02:31:36;;;;;;;9.63;8.63;;;1.60;72.50;;;;;;626202;229;26539;-65
2022/03/03 02:34:03;;;;;;;9.15;8.25;;;1.60;72.80;;;;;;626191;230;26769;-65
2022/03/03 02:36:31;;;;;;;10.07;8.20;;;1.80;71.80;;;;;;626215;229;26519;-65
2022/03/03 02:38:59;;;;;;;9.88;8.75;;;1.90;71.60;;;;;;627394;227;26585;-65
2022/03/03 02:41:27;;;;;;;9.50;8.50;;;1.90;71.50;;;;;;627547;228;26570;-64
2022/03/03 02:43:55;;;;;;;10.27;9.00;;;1.90;71.50;;;;;;627166;228;26811;-65
2022/03/03 02:46:22;;;;;;;9.30;8.40;;;1.90;71.30;;;;;;627145;228;26527;-65
2022/03/03 02:48:49;;;;;;;10.52;9.35;;;1.90;71.10;;;;;;623633;228;26796;-65
2022/03/03 02:51:16;;;;;;;10.77;8.77;;;1.90;70.70;;;;;;623544;229;26544;-65
2022/03/03 02:53:44;;;;;;;9.95;8.90;;;1.90;70.20;;;;;;623502;229;26566;-64
2022/03/03 02:56:11;;;;;;;10.80;9.10;;;1.90;70.60;;;;;;600091;238;26607;-64
2022/03/03 02:58:39;;;;;;;11.52;9.23;;;1.90;69.90;;;;;;623245;230;26635;-65
2022/03/03 03:01:06;;;;;;;10.13;8.95;;;1.90;69.90;;;;;;623173;229;26662;-64
2022/03/03 03:03:34;;;;;;;9.25;8.35;;;1.90;68.80;;;;;;623233;229;26596;-64
2022/03/03 03:06:01;;;;;;;9.88;8.88;;;1.90;69.30;;;;;;623250;229;26836;-64
2022/03/03 03:08:29;;;;;;;9.65;8.45;;;2.00;70.00;;;;;;623223;229;26563;-65
2022/03/03 03:10:56;;;;;;;9.23;8.32;;;1.90;69.40;;;;;;623251;231;26587;-64
2022/03/03 03:13:23;;;;;;;11.00;9.20;;;2.00;69.20;;;;;;624666;225;26619;-65
2022/03/03 03:15:50;;;;;;;10.23;8.25;;;2.00;68.30;;;;;;625796;225;26612;-64
2022/03/03 03:18:18;;;;;;;9.38;8.38;;;1.90;67.10;;;;;;626156;229;26528;-65
2022/03/03 03:20:45;;;;;;;10.23;8.60;;;1.90;67.10;;;;;;624385;229;26797;-65
2022/03/03 03:23:13;;;;;;;9.70;8.80;;;1.90;67.30;;;;;;623281;229;26578;-65
2022/03/03 03:25:43;;;;;;;9.98;8.70;;;1.90;68.30;;;;;;623299;229;27025;-66
2022/03/03 03:28:08;;;;;;;9.30;8.30;;;1.70;68.70;;;;;;623210;229;26577;-65
2022/03/03 03:30:36;;;;;;;10.05;8.85;;;1.70;69.30;;;;;;623348;229;26543;-66
2022/03/03 03:33:04;;;;;;;9.38;8.32;;;1.60;68.90;;;;;;625430;229;26571;-66
2022/03/03 03:35:31;;;;;;;9.80;8.80;;;1.60;68.90;;;;;;626219;229;26754;-66
2022/03/03 03:37:58;;;;;;;10.10;9.07;;;1.30;69.90;;;;;;625178;226;26589;-65
2022/03/03 03:40:25;;;;;;;10.75;9.35;;;1.20;70.50;;;;;;635281;226;26880;-65
2022/03/03 03:42:52;;;;;;;9.52;8.52;;;1.20;70.40;;;;;;635103;226;26572;-65
2022/03/03 03:45:20;;;;;;;8.90;8.00;;;1.10;71.10;;;;;;635198;226;26593;-65
2022/03/03 03:47:48;;;;;;;9.65;8.70;;;1.10;70.30;;;;;;635211;226;26505;-65
2022/03/03 03:50:16;;;;;;;10.30;8.30;;;1.10;70.00;;;;;;636307;224;26545;-66
2022/03/03 03:52:43;;;;;;;9.85;8.85;;;1.00;69.90;;;;;;636652;225;26564;-65
2022/03/03 03:55:10;;;;;;;9.23;8.30;;;1.00;70.10;;;;;;636324;226;27144;-65
2022/03/03 03:57:38;;;;;;;8.32;7.53;;;0.90;70.60;;;;;;636261;226;26602;-65
2022/03/03 04:00:06;;;;;;;9.90;8.30;;;0.90;71.10;;;;;;635999;226;26824;-66
2022/03/03 04:02:33;;;;;;;9.18;8.27;;;0.90;71.20;;;;;;635892;226;26612;-66
2022/03/03 04:05:01;;;;;;;9.15;8.25;;;0.90;70.70;;;;;;635976;226;26785;-65
2022/03/03 04:07:28;;;;;;;8.68;7.82;;;0.90;71.20;;;;;;635926;226;26542;-65
2022/03/03 04:09:55;;;;;;;9.40;8.20;;;0.90;71.30;;;;;;624962;226;26814;-65
2022/03/03 04:12:22;;;;;;;9.23;7.97;;;0.80;71.60;;;;;;623270;224;26670;-65
2022/03/03 04:14:49;;;;;;;8.93;8.02;;;0.70;72.00;;;;;;623308;229;26837;-66
2022/03/03 04:17:18;;;;;;;9.23;8.00;;;0.70;72.20;;;;;;623307;229;26608;-66
2022/03/03 04:19:44;;;;;;;10.13;8.45;;;0.70;72.10;;;;;;623242;229;27090;-66
2022/03/03 04:22:12;;;;;;;9.05;8.13;;;0.70;72.10;;;;;;623274;229;26588;-66
2022/03/03 04:24:39;;;;;;;8.43;7.20;;;0.70;72.40;;;;;;623258;231;26571;-65
2022/03/03 04:27:07;;;;;;;8.88;8.00;;;0.80;73.50;;;;;;622927;229;26578;-65
2022/03/03 04:29:35;;;;;;;7.75;6.95;;;0.80;73.50;;;;;;622847;229;26627;-66
2022/03/03 04:32:03;;;;;;;10.45;8.90;;;0.90;73.50;;;;;;622905;230;26802;-65
2022/03/03 04:34:30;;;;;;;8.15;7.45;;;0.90;73.10;;;;;;622853;229;26587;-65
2022/03/03 04:36:57;;;;;;;8.43;7.62;;;0.90;73.20;;;;;;622963;230;27246;-65
2022/03/03 04:39:24;;;;;;;8.82;7.93;;;0.90;73.20;;;;;;622938;229;26599;-65
2022/03/03 04:41:51;;;;;;;9.35;8.10;;;1.00;73.50;;;;;;623234;226;26643;-65
2022/03/03 04:44:19;;;;;;;8.65;7.22;;;0.60;75.20;;;;;;630143;226;26593;-65
2022/03/03 04:46:46;;;;;;;10.82;8.70;;;0.60;75.20;;;;;;623369;229;26664;-65
2022/03/03 04:49:13;;;;;;;8.00;7.30;;;0.50;75.90;;;;;;626238;229;26540;-65
2022/03/03 04:51:41;;;;;;;8.77;7.95;;;0.60;76.20;;;;;;626154;229;26836;-65
2022/03/03 04:54:08;;;;;;;8.55;7.65;;;0.60;76.90;;;;;;626192;229;26536;-66
2022/03/03 04:56:35;;;;;;;8.27;7.45;;;0.60;77.00;;;;;;626234;229;27209;-66
2022/03/03 04:59:03;;;;;;;8.82;7.93;;;0.60;77.50;;;;;;626204;229;26545;-65
2022/03/03 05:01:31;;;;;;;9.68;8.13;;;0.50;78.00;;;;;;626891;227;26593;-65
2022/03/03 05:03:58;;;;;;;7.47;6.78;;;0.50;78.00;;;;;;627630;228;26600;-66
2022/03/03 05:06:25;;;;;;;8.13;7.32;;;0.50;78.40;;;;;;627310;228;26554;-65
2022/03/03 05:08:53;;;;;;;8.95;8.05;;;0.40;79.20;;;;;;627164;229;27184;-66
2022/03/03 05:11:20;;;;;;;7.87;7.07;;;0.40;79.30;;;;;;626895;229;26553;-65
2022/03/03 05:13:47;;;;;;;8.07;7.30;;;0.40;79.10;;;;;;626863;229;26609;-65
2022/03/03 05:16:15;;;;;;;8.00;7.18;;;0.30;79.70;;;;;;626673;228;26599;-65
2022/03/03 05:18:43;;;;;;;8.30;7.50;;;0.30;80.40;;;;;;626775;228;26601;-65
2022/03/03 05:21:11;;;;;;;10.13;8.15;;;0.30;80.00;;;;;;626516;228;26931;-66
2022/03/03 05:23:37;;;;;;;8.07;7.28;;;0.20;79.80;;;;;;626469;228;26524;-65
2022/03/03 05:26:04;;;;;;;8.32;7.53;;;0.10;80.10;;;;;;626612;229;26774;-65
2022/03/03 05:28:32;;;;;;;8.25;7.43;;;0.10;80.70;;;;;;626584;228;26535;-65
2022/03/03 05:30:59;;;;;;;8.88;8.00;;;0.00;80.60;;;;;;626528;228;26555;-65
2022/03/03 05:33:27;;;;;;;8.63;7.32;;;0.00;81.60;;;;;;626436;228;26568;-65
2022/03/03 05:35:58;;;;;;;9.50;7.90;;;0.00;81.50;;;;;;626531;228;26497;-65
2022/03/03 05:38:26;;;;;;;8.60;7.75;;;0.00;81.40;;;;;;626245;229;26606;-65
2022/03/03 05:40:53;;;;;;;7.50;6.80;;;-0.20;81.80;;;;;;626006;226;26541;-66
2022/03/03 05:43:20;;;;;;;7.55;6.75;;;-0.20;81.90;;;;;;626184;229;26524;-65
2022/03/03 05:45:47;;;;;;;8.73;7.43;;;-0.20;83.90;;;;;;626215;229;26563;-65
2022/03/03 05:48:17;;;;;;;8.95;7.72;;;-0.30;85.00;;;;;;626320;226;26811;-65
2022/03/03 05:50:43;;;;;;;7.50;6.80;;;-0.20;86.10;;;;;;630045;224;26583;-65
2022/03/03 05:53:11;;;;;;;8.73;7.82;;;-0.10;89.30;;;;;;635279;225;26656;-65
2022/03/03 05:55:38;;;;;;;7.82;7.12;;;-0.10;85.20;;;;;;635294;222;26536;-65
2022/03/03 05:58:06;;;;;;;8.05;7.25;;;-0.20;85.40;;;;;;635047;226;26848;-65
2022/03/03 06:00:33;;;;;;;7.72;6.93;;;-0.20;86.10;;;;;;635292;226;26541;-65
2022/03/03 06:03:00;;;;;;;7.78;7.03;;;-0.10;85.70;;;;;;635262;226;26785;-65
2022/03/03 06:05:27;;;;;;;7.57;6.70;;;-0.10;86.30;;;;;;635267;226;26540;-65
2022/03/03 06:07:55;;;;;;;7.57;6.47;;;-0.30;86.60;;;;;;635284;226;26796;-65
2022/03/03 06:10:22;;;;;;;8.52;7.00;;;-0.40;87.70;;;;;;634893;222;26540;-66
2022/03/03 06:12:51;;;;;;;8.23;7.20;;;-0.20;87.80;;;;;;635817;224;26813;-66
2022/03/03 06:15:17;;;;;;;7.80;7.00;;;0.00;87.80;;;;;;636665;225;26567;-66
2022/03/03 06:17:44;;;;;;;7.35;6.75;;;0.00;87.80;;;;;;639402;225;26558;-66
2022/03/03 06:20:11;;;;;;;7.43;6.70;;;-0.10;87.90;;;;;;639462;225;26557;-65
2022/03/03 06:22:40;;;;;;;7.43;6.50;;;0.00;89.40;;;;;;639185;225;26554;-65
2022/03/03 06:25:07;;;;;;;8.20;7.40;;;0.00;89.40;;;;;;636670;225;26502;-65
2022/03/03 06:27:34;;;;;;;7.60;6.75;;;-0.30;90.00;;;;;;626060;226;26495;-65
2022/03/03 06:30:01;;;;;;;7.68;6.87;;;-0.20;90.30;;;;;;626442;226;26793;-66
2022/03/03 06:32:29;;;;;;;6.50;5.90;;;-0.40;90.60;;;;;;623791;229;26540;-65
2022/03/03 06:34:56;;;;;;;7.30;6.53;;;-0.30;90.90;;;;;;623409;229;26587;-65
2022/03/03 06:37:24;;;;;;;8.45;6.60;;;-0.30;90.90;;;;;;623242;231;26816;-66
2022/03/03 06:39:51;;;;;;;7.47;6.75;;;-0.50;91.10;;;;;;623208;229;26584;-65
2022/03/03 06:42:18;;;;;;;7.57;6.35;;;-0.60;91.50;;;;;;623229;229;27246;-66
2022/03/03 06:44:45;;;;;;;7.55;6.60;;;-0.40;91.60;;;;;;623237;229;26575;-66
2022/03/03 06:47:12;;;;;;;7.12;6.45;;;-0.30;91.40;;;;;;624501;226;26820;-64
2022/03/03 06:49:40;;;;;;;7.57;6.60;;;-0.20;91.20;;;;;;623144;229;26558;-65
2022/03/03 06:52:07;;;;;;;7.95;6.78;;;-0.30;92.10;;;;;;622969;229;26822;-65
2022/03/03 06:54:34;;;;;;;7.57;6.80;;;-0.20;91.60;;;;;;622905;229;26589;-65
2022/03/03 06:57:01;;;;;;;8.63;6.93;;;-0.20;91.60;;;;;;622965;229;26585;-65
2022/03/03 06:59:29;;;;;;;6.97;6.32;;;-0.20;91.70;;;;;;623181;226;26596;-65
2022/03/03 07:01:59;;;;;;;6.65;5.97;;;-0.40;91.30;;;;;;628950;225;26609;-65
2022/03/03 07:04:26;;;;;;;6.47;5.87;;;-0.30;91.70;;;;;;628237;226;26607;-65
2022/03/03 07:06:52;;;;;;;6.97;6.28;;;-0.30;91.70;;;;;;635173;226;26513;-70
2022/03/03 07:09:20;;;;;;;8.48;6.82;;;-0.50;91.50;;;;;;636110;225;26532;-66
2022/03/03 07:11:48;;;;;;;8.10;6.78;;;-0.80;92.50;;;;;;635238;226;26568;-69
2022/03/03 07:14:15;;;;;;;7.10;6.45;;;-0.70;92.60;;;;;;628546;226;26824;-70
2022/03/03 07:16:45;;;;;;;8.27;6.10;;;-0.60;92.70;;;;;;630866;226;26540;-70
2022/03/03 07:19:19;;;;;;;9.60;6.32;;;-0.40;92.70;;;;;;626599;226;26581;-70
2022/03/03 07:22:09;;;;;;;8.20;6.30;;;-0.40;92.70;;;;;;629436;225;26621;-67
2022/03/03 07:24:35;;;;;;;10.23;6.62;;;-0.40;92.80;;;;;;624943;225;26609;-67
2022/03/03 07:27:04;;;;;;;10.90;7.25;;;-0.60;93.70;;;;;;632281;225;26599;-67
2022/03/03 07:29:29;;;;;;;8.40;6.82;;;-0.90;94.50;;;;;;630283;226;26663;-67
2022/03/03 07:31:57;;;;;;;6.95;6.25;;;-0.90;95.10;;;;;;630014;225;26886;-67
2022/03/03 07:34:29;;;;;;;7.93;7.05;;;-0.80;95.00;;;;;;626341;226;26575;-67
2022/03/03 07:36:56;;;;;;;8.18;7.32;;;-1.20;95.90;;;;;;626553;225;26618;-70
2022/03/03 07:39:25;;;;;;;9.60;7.10;;;-0.90;96.50;;;;;;630026;225;26588;-68
2022/03/03 07:41:51;;;;;;;10.82;7.30;;;-0.70;96.20;;;;;;627938;226;26619;-67
2022/03/03 07:44:18;;;;;;;14.27;7.55;;;-1.00;97.20;;;;;;629516;225;26813;-69
2022/03/03 07:46:45;;;;;;;11.90;7.35;;;-0.80;97.10;;;;;;629214;225;26571;-67
2022/03/03 07:49:12;;;;;;;7.80;7.03;;;-0.60;96.70;;;;;;628288;225;26795;-68
2022/03/03 07:51:40;;;;;;;11.63;7.00;;;-0.40;96.10;;;;;;628608;225;26592;-68
2022/03/03 07:54:07;;;;;;;10.23;7.03;;;-0.40;96.30;;;;;;626530;225;26851;-70
2022/03/03 07:56:34;;;;;;;9.45;7.40;;;-0.80;97.30;;;;;;630869;226;26613;-70
2022/03/03 07:59:01;;;;;;;19.90;6.87;;;-0.40;96.60;;;;;;632446;226;26854;-73
2022/03/03 08:01:28;;;;;;;8.55;6.53;;;-0.50;96.90;;;;;;634520;225;26520;-73
2022/03/03 08:03:56;;;;;;;9.48;6.72;;;-0.30;96.80;;;;;;625853;228;26808;-69
2022/03/03 08:06:23;;;;;;;11.45;7.43;;;-0.30;96.30;;;;;;626010;229;26605;-67
2022/03/03 08:08:50;;;;;;;9.77;7.68;;;0.00;96.30;;;;;;624914;229;26800;-66
2022/03/03 08:11:19;;;;;;;13.62;8.02;;;0.10;96.10;;;;;;627010;226;26579;-67
2022/03/03 08:13:46;;;;;;;10.77;7.80;;;0.20;95.60;;;;;;626593;226;26598;-64
2022/03/03 08:16:12;;;;;;;8.93;7.25;;;-0.10;96.50;;;;;;627262;225;26587;-64
2022/03/03 08:18:40;;;;;;;8.93;7.43;;;-0.20;97.00;;;;;;630926;226;26548;-64
2022/03/03 08:21:09;;;;;;;8.35;7.05;;;0.00;96.70;;;;;;632847;226;26599;-64
2022/03/03 08:23:35;;;;;;;8.43;7.18;;;-0.10;96.70;;;;;;623297;226;27256;-64
2022/03/03 08:26:03;;;;;;;8.55;7.55;;;0.10;96.50;;;;;;623824;229;26610;-64
2022/03/03 08:28:31;;;;;;;11.00;7.20;;;0.30;96.20;;;;;;624873;229;26785;-64
2022/03/03 08:31:00;;;;;;;8.05;6.95;;;0.30;96.50;;;;;;626072;229;26545;-64
2022/03/03 08:33:31;;;;;;;8.80;7.37;;;0.50;96.00;;;;;;631951;226;26548;-64
2022/03/03 08:35:57;;;;;;;8.15;7.35;;;0.60;96.10;;;;;;626156;227;26813;-63
2022/03/03 08:38:25;;;;;;;10.90;6.90;;;0.70;95.40;;;;;;626019;228;26558;-64
2022/03/03 08:40:52;;;;;;;7.62;6.87;;;0.50;95.70;;;;;;630346;225;26862;-64
2022/03/03 08:43:20;;;;;;;7.72;6.78;;;0.30;96.30;;;;;;635708;226;26618;-63
2022/03/03 08:45:48;;;;;;;8.52;7.32;;;0.20;96.20;;;;;;623607;224;26499;-63
2022/03/03 08:48:14;;;;;;;8.25;6.85;;;-0.10;97.10;;;;;;624121;226;26765;-63
2022/03/03 08:50:41;;;;;;;7.78;6.75;;;0.30;97.00;;;;;;631677;226;26559;-64
2022/03/03 08:53:08;;;;;;;8.68;7.35;;;0.50;95.90;;;;;;626749;225;27208;-64
2022/03/03 08:55:36;;;;;;;7.93;7.18;;;0.60;96.50;;;;;;626014;228;26542;-64
2022/03/03 08:58:05;;;;;;;8.23;7.43;;;0.90;95.70;;;;;;624855;225;26552;-64
2022/03/03 09:00:31;;;;;;;7.80;6.95;;;0.90;95.70;;;;;;624713;229;26592;-64
2022/03/03 09:02:59;;;;;;;9.27;7.20;;;1.10;95.30;;;;;;623420;229;26608;-64
2022/03/03 09:05:26;;;;;;;8.13;6.95;;;1.20;95.30;;;;;;634560;225;26892;-64
2022/03/03 09:07:53;;;;;;;10.95;6.93;;;1.30;94.70;;;;;;634555;225;26577;-64
2022/03/03 09:10:21;;;;;;;7.05;6.43;;;0.90;95.70;;;;;;628811;226;26836;-64
2022/03/03 09:12:49;;;;;;;7.47;6.62;;;1.00;95.10;;;;;;628724;226;26634;-64
2022/03/03 09:15:16;;;;;;;7.72;6.43;;;1.00;95.10;;;;;;627483;225;26914;-63
2022/03/03 09:17:43;;;;;;;24.77;7.15;;;0.90;95.30;;;;;;622898;226;26625;-65
2022/03/03 09:20:13;;;;;;;63.50;19.25;;;1.10;95.10;;;;;;598957;240;26951;-64
2022/03/03 09:22:39;;;;;;;96.60;23.00;;;1.00;94.90;;;;;;601887;239;26618;-64
2022/03/03 09:25:08;;;;;;;776.37;63.38;;;1.50;94.30;;;;;;601812;239;26587;-64
2022/03/03 09:27:34;;;;;;;905.38;75.50;;;1.50;94.30;;;;;;601851;239;26580;-63
2022/03/03 09:30:02;;;;;;;113.43;28.60;;;1.60;94.30;;;;;;601847;238;26837;-63
2022/03/03 09:32:29;;;;;;;93.45;24.35;;;1.90;93.90;;;;;;601842;238;26622;-65
2022/03/03 09:34:56;;;;;;;64.32;20.17;;;1.50;93.90;;;;;;608317;233;26884;-65
2022/03/03 09:37:23;;;;;;;62.17;19.92;;;1.40;94.70;;;;;;612527;234;26659;-66
2022/03/03 09:39:51;;;;;;;71.40;19.83;;;1.80;94.20;;;;;;613003;234;27262;-65
2022/03/03 09:42:18;;;;;;;55.33;18.02;;;1.60;94.20;;;;;;597733;240;26618;-65
2022/03/03 09:44:45;;;;;;;54.47;17.70;;;1.60;95.00;;;;;;609416;235;26868;-66
2022/03/03 09:47:12;;;;;;;59.22;18.23;;;1.50;94.70;;;;;;611750;231;26641;-65
2022/03/03 09:49:39;;;;;;;45.58;15.68;;;1.60;94.70;;;;;;614155;231;26892;-66
2022/03/03 09:52:15;;;;;;;40.38;15.55;;;2.10;93.90;;;;;;614306;231;26679;-66
2022/03/03 09:54:42;;;;;;;36.00;14.48;;;2.10;93.10;;;;;;621637;227;26555;-66
2022/03/03 09:57:10;;;;;;;30.98;13.57;;;1.90;93.50;;;;;;623750;229;26575;-66
2022/03/03 09:59:37;;;;;;;36.15;14.25;;;1.60;93.80;;;;;;623448;229;26791;-66
2022/03/03 10:02:04;;;;;;;33.10;14.18;;;1.50;94.30;;;;;;624052;226;26567;-66
2022/03/03 10:04:31;;;;;;;35.28;12.85;;;1.90;94.10;;;;;;633872;225;26585;-64
2022/03/03 10:07:04;;;;;;;28.17;12.60;;;2.10;93.50;;;;;;629018;225;26767;-65
2022/03/03 10:09:31;;;;;;;19.98;9.02;;;1.90;94.30;;;;;;631914;225;26630;-64
2022/03/03 10:12:01;;;;;;;13.05;8.30;;;2.20;93.80;;;;;;623208;229;26617;-66
2022/03/03 10:14:38;;;;;;;16.37;6.95;;;2.50;93.40;;;;;;623019;230;26618;-65
2022/03/03 10:17:05;;;;;;;12.05;7.20;;;2.60;92.80;;;;;;632418;227;26603;-65
2022/03/03 10:19:32;;;;;;;12.73;7.32;;;2.60;92.80;;;;;;632938;227;26585;-65
2022/03/03 10:22:00;;;;;;;14.27;7.62;;;2.70;92.80;;;;;;631879;227;26809;-65
2022/03/03 10:24:28;;;;;;;11.20;7.12;;;2.70;93.10;;;;;;626540;225;26593;-65
2022/03/03 10:26:58;;;;;;;16.45;7.85;;;2.70;93.30;;;;;;604770;235;26682;-65
2022/03/03 10:29:26;;;;;;;13.45;7.03;;;2.70;93.30;;;;;;637229;225;26543;-64
2022/03/03 10:31:54;;;;;;;8.70;5.60;;;2.30;93.90;;;;;;638007;225;26568;-63
2022/03/03 10:34:21;;;;;;;13.85;7.40;;;2.10;94.30;;;;;;638053;225;26548;-63
2022/03/03 10:36:59;;;;;;;10.23;6.47;;;2.10;94.30;;;;;;637964;225;26536;-63
2022/03/03 10:39:42;;;;;;;8.27;6.05;;;2.50;93.80;;;;;;638006;225;26501;-62
2022/03/03 10:42:12;;;;;;;9.07;6.78;;;2.50;93.80;;;;;;636735;225;26558;-62
2022/03/03 10:44:39;;;;;;;9.13;5.82;;;2.70;93.80;;;;;;638009;225;26764;-63
2022/03/03 10:47:09;;;;;;;9.32;5.87;;;2.90;93.70;;;;;;638058;225;26551;-63
2022/03/03 10:49:37;;;;;;;9.77;6.30;;;2.90;93.70;;;;;;638021;225;26545;-64
2022/03/03 10:52:09;;;;;;;8.82;6.07;;;2.70;93.80;;;;;;637938;225;27229;-64
2022/03/03 10:54:45;;;;;;;9.35;5.57;;;2.90;94.20;;;;;;637726;225;26532;-63
2022/03/03 10:57:13;;;;;;;8.57;5.40;;;2.80;94.20;;;;;;637963;225;26547;-68
2022/03/03 10:59:41;;;;;;;11.07;5.93;;;3.10;93.80;;;;;;635349;224;26823;-67
2022/03/03 11:02:07;;;;;;;9.63;5.70;;;3.30;93.90;;;;;;638221;225;26606;-65
2022/03/03 11:04:35;;;;;;;10.95;5.47;;;3.20;92.90;;;;;;639383;225;26584;-65
2022/03/03 11:07:03;;;;;;;6.75;4.68;;;2.70;93.80;;;;;;639432;225;26557;-65
2022/03/03 11:09:32;;;;;;;8.50;5.12;;;2.70;93.80;;;;;;639179;225;26810;-64
2022/03/03 11:11:57;;;;;;;7.30;4.90;;;2.70;93.80;;;;;;638836;224;26552;-65
2022/03/03 11:14:24;;;;;;;8.38;5.07;;;2.70;93.70;;;;;;638766;225;26763;-64
2022/03/03 11:16:52;;;;;;;8.80;5.72;;;2.80;93.40;;;;;;638624;225;26541;-65
2022/03/03 11:19:20;;;;;;;10.93;5.12;;;3.00;93.40;;;;;;638385;225;26580;-65
2022/03/03 11:21:48;;;;;;;11.27;4.95;;;3.00;93.70;;;;;;638390;225;26625;-64
2022/03/03 11:24:17;;;;;;;6.70;4.95;;;3.20;93.10;;;;;;638410;225;26593;-64
2022/03/03 11:26:44;;;;;;;9.75;5.22;;;3.20;93.10;;;;;;638438;225;26597;-64
2022/03/03 11:29:13;;;;;;;6.47;4.80;;;3.00;93.30;;;;;;638343;221;27245;-64
2022/03/03 11:31:40;;;;;;;6.32;4.90;;;3.10;93.40;;;;;;637947;225;26597;-65
2022/03/03 11:34:27;;;;;;;6.07;4.90;;;3.10;93.00;;;;;;638313;225;26776;-65
2022/03/03 11:37:03;;;;;;;5.32;4.60;;;3.20;93.60;;;;;;637557;225;26504;-65
2022/03/03 11:39:37;;;;;;;5.30;4.60;;;3.50;92.90;;;;;;637968;225;26532;-65
2022/03/03 11:42:15;;;;;;;7.22;4.35;;;3.50;92.90;;;;;;637862;225;26568;-65
2022/03/03 11:44:43;;;;;;;9.00;4.60;;;3.50;92.80;;;;;;638236;220;26540;-65
2022/03/03 11:47:19;;;;;;;6.57;4.82;;;3.30;92.60;;;;;;638095;225;26539;-62
2022/03/03 11:50:14;;;;;;;5.95;4.15;;;3.30;92.60;;;;;;638093;225;26531;-65
2022/03/03 11:52:41;;;;;;;6.57;4.47;;;3.00;93.40;;;;;;636973;225;26572;-65
2022/03/03 11:55:21;;;;;;;5.72;4.10;;;3.00;93.80;;;;;;638014;225;26520;-65
2022/03/03 11:57:48;;;;;;;6.95;4.50;;;3.00;93.80;;;;;;638061;225;26788;-66
2022/03/03 12:00:17;;;;;;;5.60;4.28;;;3.10;93.30;;;;;;638047;225;27101;-64
2022/03/03 12:02:52;;;;;;;7.72;4.68;;;3.00;93.20;;;;;;637943;221;26531;-63
2022/03/03 12:05:30;;;;;;;6.87;4.37;;;2.90;93.60;;;;;;638031;225;26753;-65
2022/03/03 12:08:04;;;;;;;5.85;4.12;;;3.00;93.70;;;;;;636789;225;26785;-65
2022/03/03 12:10:32;;;;;;;7.00;4.18;;;3.30;93.30;;;;;;638485;223;26760;-65
2022/03/03 12:13:11;;;;;;;5.97;4.40;;;3.00;92.80;;;;;;639495;225;26634;-65
2022/03/03 12:15:39;;;;;;;4.20;3.80;;;3.10;93.20;;;;;;638220;225;26586;-65
2022/03/03 12:18:08;;;;;;;5.93;4.20;;;3.10;93.20;;;;;;638936;225;26591;-65
2022/03/03 12:20:34;;;;;;;4.95;4.40;;;3.20;92.70;;;;;;638716;225;26546;-65
2022/03/03 12:23:18;;;;;;;4.35;3.95;;;3.30;92.50;;;;;;639013;225;26540;-65
2022/03/03 12:25:58;;;;;;;4.20;3.80;;;3.30;92.70;;;;;;638981;225;26964;-65
2022/03/03 12:28:36;;;;;;;4.62;3.87;;;3.50;92.50;;;;;;639023;225;26822;-66
2022/03/03 12:31:03;;;;;;;5.45;4.40;;;3.60;92.00;;;;;;638789;225;26528;-65
2022/03/03 12:33:30;;;;;;;5.62;3.90;;;3.60;91.80;;;;;;637342;225;26601;-66
2022/03/03 12:35:59;;;;;;;4.43;3.80;;;3.10;92.10;;;;;;638535;225;26617;-66
2022/03/03 12:38:27;;;;;;;4.68;3.87;;;3.50;92.60;;;;;;638590;225;26556;-66
2022/03/03 12:40:54;;;;;;;4.03;3.62;;;3.50;92.90;;;;;;638407;225;26792;-65
2022/03/03 12:43:21;;;;;;;4.20;3.78;;;3.50;91.50;;;;;;638410;225;26601;-65
2022/03/03 12:45:48;;;;;;;4.37;3.45;;;3.50;92.30;;;;;;638357;225;26810;-66
2022/03/03 12:48:27;;;;;;;4.30;3.75;;;3.40;92.30;;;;;;638094;225;26527;-65
2022/03/03 12:50:59;;;;;;;4.32;3.92;;;3.50;92.10;;;;;;638005;225;27253;-65
2022/03/03 12:53:26;;;;;;;4.00;3.25;;;3.50;92.10;;;;;;637833;225;26568;-65
2022/03/03 12:55:53;;;;;;;4.90;3.72;;;3.50;92.10;;;;;;637335;225;26737;-66